sensor_id;sensor_type;location;lat;lon;timestamp;pressure;altitude;pressure_sealevel;temperature;humidity
66486;BME280;53303;47.476;8.084;2023-06-10T00:01:08;94899.56;;;23.95;43.81
66486;BME280;53303;47.476;8.084;2023-06-10T00:03:34;94904.59;;;23.97;43.83
66486;BME280;53303;47.476;8.084;2023-06-10T00:05:59;94896.03;;;23.94;43.69
66486;BME280;53303;47.476;8.084;2023-06-10T00:08:24;94900.31;;;23.95;43.59
66486;BME280;53303;47.476;8.084;2023-06-10T00:10:50;94899.38;;;23.93;43.79
66486;BME280;53303;47.476;8.084;2023-06-10T00:13:18;94903.09;;;23.95;43.67
66486;BME280;53303;47.476;8.084;2023-06-10T00:15:43;94902.91;;;23.93;43.56
66486;BME280;53303;47.476;8.084;2023-06-10T00:18:10;94903.84;;;23.96;43.60
66486;BME280;53303;47.476;8.084;2023-06-10T00:20:37;94898.63;;;23.92;43.48
66486;BME280;53303;47.476;8.084;2023-06-10T00:23:04;94903.66;;;23.94;43.64
66486;BME280;53303;47.476;8.084;2023-06-10T00:25:31;94900.31;;;23.95;43.37
66486;BME280;53303;47.476;8.084;2023-06-10T00:27:58;94906.44;;;23.94;43.66
66486;BME280;53303;47.476;8.084;2023-06-10T00:30:25;94900.88;;;23.94;43.41
66486;BME280;53303;47.476;8.084;2023-06-10T00:32:51;94900.31;;;23.95;43.54
66486;BME280;53303;47.476;8.084;2023-06-10T00:35:24;94896.78;;;23.95;43.58
66486;BME280;53303;47.476;8.084;2023-06-10T00:37:49;94901.41;;;23.92;43.21
66486;BME280;53303;47.476;8.084;2023-06-10T00:40:14;94896.03;;;23.94;43.42
66486;BME280;53303;47.476;8.084;2023-06-10T00:42:40;94900.09;;;23.93;43.42
66486;BME280;53303;47.476;8.084;2023-06-10T00:45:06;94893.06;;;23.92;43.52
66486;BME280;53303;47.476;8.084;2023-06-10T00:47:32;94904.94;;;23.93;43.50
66486;BME280;53303;47.476;8.084;2023-06-10T00:49:57;94903.66;;;23.94;43.53
66486;BME280;53303;47.476;8.084;2023-06-10T00:52:27;94898.09;;;23.94;43.29
66486;BME280;53303;47.476;8.084;2023-06-10T00:54:52;94908.47;;;23.93;43.36
66486;BME280;53303;47.476;8.084;2023-06-10T00:57:18;94893.59;;;23.91;43.44
66486;BME280;53303;47.476;8.084;2023-06-10T00:59:48;94891.34;;;23.89;43.25
66486;BME280;53303;47.476;8.084;2023-06-10T01:02:14;94886.53;;;23.90;43.27
66486;BME280;53303;47.476;8.084;2023-06-10T01:04:39;94895.66;;;23.90;43.30
66486;BME280;53303;47.476;8.084;2023-06-10T01:07:23;94895.84;;;23.92;43.37
66486;BME280;53303;47.476;8.084;2023-06-10T01:10:06;94904.56;;;23.89;43.16
66486;BME280;53303;47.476;8.084;2023-06-10T01:12:49;94904.00;;;23.90;43.17
66486;BME280;53303;47.476;8.084;2023-06-10T01:15:17;94903.25;;;23.90;43.33
66486;BME280;53303;47.476;8.084;2023-06-10T01:18:12;94907.69;;;23.85;43.16
66486;BME280;53303;47.476;8.084;2023-06-10T01:20:42;94898.97;;;23.89;43.28
66486;BME280;53303;47.476;8.084;2023-06-10T01:23:10;94906.03;;;23.90;43.08
66486;BME280;53303;47.476;8.084;2023-06-10T01:26:07;94903.41;;;23.84;43.16
66486;BME280;53303;47.476;8.084;2023-06-10T01:28:51;94905.84;;;23.88;42.92
66486;BME280;53303;47.476;8.084;2023-06-10T01:32:18;94911.94;;;23.86;43.04
66486;BME280;53303;47.476;8.084;2023-06-10T01:34:18;94905.09;;;23.87;42.85
66486;BME280;53303;47.476;8.084;2023-06-10T01:36:48;94905.09;;;23.87;42.95
66486;BME280;53303;47.476;8.084;2023-06-10T01:39:17;94907.13;;;23.87;42.90
66486;BME280;53303;47.476;8.084;2023-06-10T01:41:47;94910.13;;;23.89;42.66
66486;BME280;53303;47.476;8.084;2023-06-10T01:44:18;94909.94;;;23.87;42.76
66486;BME280;53303;47.476;8.084;2023-06-10T01:46:43;94901.34;;;23.85;42.83
66486;BME280;53303;47.476;8.084;2023-06-10T01:49:09;94911.41;;;23.88;42.79
66486;BME280;53303;47.476;8.084;2023-06-10T01:51:34;94903.59;;;23.86;42.89
66486;BME280;53303;47.476;8.084;2023-06-10T01:53:59;94912.72;;;23.87;42.67
66486;BME280;53303;47.476;8.084;2023-06-10T01:56:25;94916.03;;;23.85;42.79
66486;BME280;53303;47.476;8.084;2023-06-10T01:58:50;94909.50;;;23.83;42.45
66486;BME280;53303;47.476;8.084;2023-06-10T02:01:16;94911.94;;;23.86;42.55
66486;BME280;53303;47.476;8.084;2023-06-10T02:03:44;94912.28;;;23.83;42.44
66486;BME280;53303;47.476;8.084;2023-06-10T02:06:09;94918.63;;;23.83;42.56
66486;BME280;53303;47.476;8.084;2023-06-10T02:08:35;94921.06;;;23.87;42.39
66486;BME280;53303;47.476;8.084;2023-06-10T02:11:00;94923.09;;;23.86;42.53
66486;BME280;53303;47.476;8.084;2023-06-10T02:13:26;94918.63;;;23.83;42.43
66486;BME280;53303;47.476;8.084;2023-06-10T02:15:51;94929.97;;;23.85;42.40
66486;BME280;53303;47.476;8.084;2023-06-10T02:18:19;94924.19;;;23.83;42.51
66486;BME280;53303;47.476;8.084;2023-06-10T02:20:46;94930.72;;;23.86;42.59
66486;BME280;53303;47.476;8.084;2023-06-10T02:23:11;94931.06;;;23.82;42.57
66486;BME280;53303;47.476;8.084;2023-06-10T02:25:37;94929.97;;;23.85;42.18
66486;BME280;53303;47.476;8.084;2023-06-10T02:28:02;94932.56;;;23.83;42.13
66486;BME280;53303;47.476;8.084;2023-06-10T02:30:28;94938.34;;;23.85;42.12
66486;BME280;53303;47.476;8.084;2023-06-10T02:32:56;94931.25;;;23.84;42.41
66486;BME280;53303;47.476;8.084;2023-06-10T02:35:24;94930.50;;;23.84;42.20
66486;BME280;53303;47.476;8.084;2023-06-10T02:37:50;94928.59;;;23.79;42.23
66486;BME280;53303;47.476;8.084;2023-06-10T02:40:15;94931.59;;;23.81;42.22
66486;BME280;53303;47.476;8.084;2023-06-10T02:42:41;94933.09;;;23.82;42.34
66486;BME280;53303;47.476;8.084;2023-06-10T02:45:07;94943.72;;;23.83;42.06
66486;BME280;53303;47.476;8.084;2023-06-10T02:47:32;94939.22;;;23.80;42.13
66486;BME280;53303;47.476;8.084;2023-06-10T02:49:58;94948.09;;;23.79;42.23
66486;BME280;53303;47.476;8.084;2023-06-10T02:52:24;94934.84;;;23.71;42.32
66486;BME280;53303;47.476;8.084;2023-06-10T02:54:50;94948.31;;;23.81;41.99
66486;BME280;53303;47.476;8.084;2023-06-10T02:57:15;94946.25;;;23.81;42.30
66486;BME280;53303;47.476;8.084;2023-06-10T02:59:43;94944.78;;;23.80;42.27
66486;BME280;53303;47.476;8.084;2023-06-10T03:02:08;94946.03;;;23.79;42.26
66486;BME280;53303;47.476;8.084;2023-06-10T03:04:34;94953.16;;;23.80;42.22
66486;BME280;53303;47.476;8.084;2023-06-10T03:07:02;94946.56;;;23.77;42.08
66486;BME280;53303;47.476;8.084;2023-06-10T03:09:32;94948.31;;;23.81;42.30
66486;BME280;53303;47.476;8.084;2023-06-10T03:11:58;94953.16;;;23.80;42.36
66486;BME280;53303;47.476;8.084;2023-06-10T03:14:25;94957.72;;;23.77;42.14
66486;BME280;53303;47.476;8.084;2023-06-10T03:16:53;94951.75;;;23.73;42.24
66486;BME280;53303;47.476;8.084;2023-06-10T03:19:18;94961.03;;;23.76;42.28
66486;BME280;53303;47.476;8.084;2023-06-10T03:21:49;94957.91;;;23.80;42.08
66486;BME280;53303;47.476;8.084;2023-06-10T03:24:15;94946.91;;;23.74;42.25
66486;BME280;53303;47.476;8.084;2023-06-10T03:26:42;94959.22;;;23.79;42.33
66486;BME280;53303;47.476;8.084;2023-06-10T03:29:10;94964.06;;;23.78;41.98
66486;BME280;53303;47.476;8.084;2023-06-10T03:31:35;94961.28;;;23.78;42.17
66486;BME280;53303;47.476;8.084;2023-06-10T03:34:03;94963.84;;;23.76;42.42
66486;BME280;53303;47.476;8.084;2023-06-10T03:36:31;94964.59;;;23.76;42.36
66486;BME280;53303;47.476;8.084;2023-06-10T03:38:56;94956.78;;;23.75;42.37
66486;BME280;53303;47.476;8.084;2023-06-10T03:41:24;94963.28;;;23.77;42.45
66486;BME280;53303;47.476;8.084;2023-06-10T03:43:54;94963.84;;;23.76;42.53
66486;BME280;53303;47.476;8.084;2023-06-10T03:46:20;94960.84;;;23.74;42.52
66486;BME280;53303;47.476;8.084;2023-06-10T03:48:45;94970.16;;;23.76;42.63
66486;BME280;53303;47.476;8.084;2023-06-10T03:51:10;94963.84;;;23.76;42.70
66486;BME280;53303;47.476;8.084;2023-06-10T03:53:36;94967.72;;;23.73;42.72
66486;BME280;53303;47.476;8.084;2023-06-10T03:56:01;94959.56;;;23.75;42.71
66486;BME280;53303;47.476;8.084;2023-06-10T03:58:29;94962.91;;;23.73;42.49
66486;BME280;53303;47.476;8.084;2023-06-10T04:00:54;94958.25;;;23.76;42.76
66486;BME280;53303;47.476;8.084;2023-06-10T04:03:20;94962.91;;;23.73;42.74
66486;BME280;53303;47.476;8.084;2023-06-10T04:05:48;94964.94;;;23.73;42.77
66486;BME280;53303;47.476;8.084;2023-06-10T04:08:15;94970.16;;;23.76;42.70
66486;BME280;53303;47.476;8.084;2023-06-10T04:10:40;94970.16;;;23.76;42.79
66486;BME280;53303;47.476;8.084;2023-06-10T04:13:06;94966.22;;;23.72;42.84
66486;BME280;53303;47.476;8.084;2023-06-10T04:15:31;94967.94;;;23.75;42.88
66486;BME280;53303;47.476;8.084;2023-06-10T04:18:02;94970.72;;;23.75;42.89
66486;BME280;53303;47.476;8.084;2023-06-10T04:20:30;94972.53;;;23.72;42.88
66486;BME280;53303;47.476;8.084;2023-06-10T04:22:55;94976.28;;;23.75;42.96
66486;BME280;53303;47.476;8.084;2023-06-10T04:25:20;94983.34;;;23.76;43.09
66486;BME280;53303;47.476;8.084;2023-06-10T04:27:46;94964.31;;;23.67;43.15
66486;BME280;53303;47.476;8.084;2023-06-10T04:30:12;94976.09;;;23.73;43.21
66486;BME280;53303;47.476;8.084;2023-06-10T04:32:37;94981.84;;;23.75;43.08
66486;BME280;53303;47.476;8.084;2023-06-10T04:35:05;94980.34;;;23.74;43.24
66486;BME280;53303;47.476;8.084;2023-06-10T04:37:31;94972.31;;;23.70;43.24
66486;BME280;53303;47.476;8.084;2023-06-10T04:39:59;94980.53;;;23.76;43.29
66486;BME280;53303;47.476;8.084;2023-06-10T04:42:25;94974.56;;;23.72;43.21
66486;BME280;53303;47.476;8.084;2023-06-10T04:44:50;94975.13;;;23.70;43.40
66486;BME280;53303;47.476;8.084;2023-06-10T04:47:16;94988.69;;;23.74;43.35
66486;BME280;53303;47.476;8.084;2023-06-10T04:49:42;94989.47;;;23.74;43.45
66486;BME280;53303;47.476;8.084;2023-06-10T04:52:08;94987.22;;;23.73;43.48
66486;BME280;53303;47.476;8.084;2023-06-10T04:54:33;94988.50;;;23.72;43.38
66486;BME280;53303;47.476;8.084;2023-06-10T04:56:58;94983.28;;;23.68;43.94
66486;BME280;53303;47.476;8.084;2023-06-10T04:59:26;95002.84;;;23.76;43.52
66486;BME280;53303;47.476;8.084;2023-06-10T05:01:51;94992.25;;;23.74;43.47
66486;BME280;53303;47.476;8.084;2023-06-10T05:04:19;94994.28;;;23.74;43.63
66486;BME280;53303;47.476;8.084;2023-06-10T05:06:47;94995.78;;;23.75;43.57
66486;BME280;53303;47.476;8.084;2023-06-10T05:09:13;94995.03;;;23.74;43.72
66486;BME280;53303;47.476;8.084;2023-06-10T05:11:38;94984.25;;;23.71;43.84
66486;BME280;53303;47.476;8.084;2023-06-10T05:14:04;95001.34;;;23.75;43.75
66486;BME280;53303;47.476;8.084;2023-06-10T05:16:30;94994.06;;;23.72;43.66
66486;BME280;53303;47.476;8.084;2023-06-10T05:18:58;94995.78;;;23.75;43.81
66486;BME280;53303;47.476;8.084;2023-06-10T05:21:24;95004.13;;;23.75;43.89
66486;BME280;53303;47.476;8.084;2023-06-10T05:23:51;95003.94;;;23.73;44.05
66486;BME280;53303;47.476;8.084;2023-06-10T05:26:17;95007.66;;;23.75;43.83
66486;BME280;53303;47.476;8.084;2023-06-10T05:28:44;95006.53;;;23.71;43.87
66486;BME280;53303;47.476;8.084;2023-06-10T05:31:10;95008.00;;;23.72;43.72
66486;BME280;53303;47.476;8.084;2023-06-10T05:33:35;95003.94;;;23.73;44.11
66486;BME280;53303;47.476;8.084;2023-06-10T05:36:01;95009.50;;;23.73;44.08
66486;BME280;53303;47.476;8.084;2023-06-10T05:38:27;95006.53;;;23.71;44.04
66486;BME280;53303;47.476;8.084;2023-06-10T05:40:52;95013.78;;;23.74;44.23
66486;BME280;53303;47.476;8.084;2023-06-10T05:43:18;95006.91;;;23.75;44.26
66486;BME280;53303;47.476;8.084;2023-06-10T05:45:43;95003.72;;;23.71;44.22
66486;BME280;53303;47.476;8.084;2023-06-10T05:48:08;95004.69;;;23.73;44.17
66486;BME280;53303;47.476;8.084;2023-06-10T05:50:34;95011.94;;;23.76;44.49
66486;BME280;53303;47.476;8.084;2023-06-10T05:53:04;95019.00;;;23.77;44.44
66486;BME280;53303;47.476;8.084;2023-06-10T05:55:32;95013.78;;;23.74;44.47
66486;BME280;53303;47.476;8.084;2023-06-10T05:58:00;95011.19;;;23.76;44.44
66486;BME280;53303;47.476;8.084;2023-06-10T06:00:28;95014.75;;;23.76;44.30
66486;BME280;53303;47.476;8.084;2023-06-10T06:02:54;95008.97;;;23.74;44.40
66486;BME280;53303;47.476;8.084;2023-06-10T06:05:19;95009.91;;;23.77;44.32
66486;BME280;53303;47.476;8.084;2023-06-10T06:07:45;95009.91;;;23.77;44.38
66486;BME280;53303;47.476;8.084;2023-06-10T06:10:10;94999.09;;;23.73;44.56
66486;BME280;53303;47.476;8.084;2023-06-10T06:12:36;95007.66;;;23.75;44.42
66486;BME280;53303;47.476;8.084;2023-06-10T06:15:02;95017.00;;;23.78;44.46
66486;BME280;53303;47.476;8.084;2023-06-10T06:17:27;95015.28;;;23.75;44.44
66486;BME280;53303;47.476;8.084;2023-06-10T06:19:52;95014.19;;;23.78;44.45
66486;BME280;53303;47.476;8.084;2023-06-10T06:22:18;95011.41;;;23.78;44.64
66486;BME280;53303;47.476;8.084;2023-06-10T06:24:47;95012.50;;;23.75;44.84
66486;BME280;53303;47.476;8.084;2023-06-10T06:27:12;95003.41;;;23.74;45.06
66486;BME280;53303;47.476;8.084;2023-06-10T06:29:40;95008.63;;;23.78;45.20
66486;BME280;53303;47.476;8.084;2023-06-10T06:32:06;95004.34;;;23.77;45.36
66486;BME280;53303;47.476;8.084;2023-06-10T06:34:31;95000.03;;;23.76;45.56
66486;BME280;53303;47.476;8.084;2023-06-10T06:36:57;95006.59;;;23.79;45.44
66486;BME280;53303;47.476;8.084;2023-06-10T06:39:22;95003.59;;;23.76;45.79
66486;BME280;53303;47.476;8.084;2023-06-10T06:41:48;95017.97;;;23.81;45.48
66486;BME280;53303;47.476;8.084;2023-06-10T06:44:13;95003.59;;;23.76;45.68
66486;BME280;53303;47.476;8.084;2023-06-10T06:46:39;94993.72;;;23.75;45.37
66486;BME280;53303;47.476;8.084;2023-06-10T06:49:04;95009.38;;;23.79;45.72
66486;BME280;53303;47.476;8.084;2023-06-10T06:51:29;94999.31;;;23.75;45.58
66486;BME280;53303;47.476;8.084;2023-06-10T06:53:55;95002.50;;;23.80;45.41
66486;BME280;53303;47.476;8.084;2023-06-10T06:56:23;95008.06;;;23.80;45.62
66486;BME280;53303;47.476;8.084;2023-06-10T06:58:49;95001.34;;;23.75;45.62
66486;BME280;53303;47.476;8.084;2023-06-10T07:01:14;95000.03;;;23.76;45.46
66486;BME280;53303;47.476;8.084;2023-06-10T07:03:40;95000.50;;;23.80;45.59
66486;BME280;53303;47.476;8.084;2023-06-10T07:06:05;95004.34;;;23.77;45.36
66486;BME280;53303;47.476;8.084;2023-06-10T07:08:31;95006.06;;;23.80;45.56
66486;BME280;53303;47.476;8.084;2023-06-10T07:10:56;95000.03;;;23.76;45.69
66486;BME280;53303;47.476;8.084;2023-06-10T07:13:21;94998.56;;;23.75;45.25
66486;BME280;53303;47.476;8.084;2023-06-10T07:15:49;95005.28;;;23.80;45.65
66486;BME280;53303;47.476;8.084;2023-06-10T07:18:15;95003.06;;;23.78;45.73
66486;BME280;53303;47.476;8.084;2023-06-10T07:20:41;95001.56;;;23.77;45.73
66486;BME280;53303;47.476;8.084;2023-06-10T07:23:06;95010.84;;;23.80;45.59
66486;BME280;53303;47.476;8.084;2023-06-10T07:25:32;95006.91;;;23.75;45.59
66486;BME280;53303;47.476;8.084;2023-06-10T07:27:57;95005.84;;;23.78;45.47
66486;BME280;53303;47.476;8.084;2023-06-10T07:30:23;95006.59;;;23.79;45.60
66486;BME280;53303;47.476;8.084;2023-06-10T07:32:48;95004.13;;;23.75;45.57
66486;BME280;53303;47.476;8.084;2023-06-10T07:35:13;95005.63;;;23.76;45.58
66486;BME280;53303;47.476;8.084;2023-06-10T07:37:39;95011.66;;;23.80;45.75
66486;BME280;53303;47.476;8.084;2023-06-10T07:40:05;95009.38;;;23.79;45.48
66486;BME280;53303;47.476;8.084;2023-06-10T07:42:32;95005.06;;;23.77;45.79
66486;BME280;53303;47.476;8.084;2023-06-10T07:44:58;95014.19;;;23.78;45.79
66486;BME280;53303;47.476;8.084;2023-06-10T07:47:23;95014.44;;;23.80;45.72
66486;BME280;53303;47.476;8.084;2023-06-10T07:49:49;95011.41;;;23.78;45.63
66486;BME280;53303;47.476;8.084;2023-06-10T07:52:16;95010.34;;;23.81;45.89
66486;BME280;53303;47.476;8.084;2023-06-10T07:54:42;95007.13;;;23.77;45.69
66486;BME280;53303;47.476;8.084;2023-06-10T07:57:07;95002.84;;;23.76;45.92
66486;BME280;53303;47.476;8.084;2023-06-10T07:59:33;95009.59;;;23.81;45.97
66486;BME280;53303;47.476;8.084;2023-06-10T08:01:58;95005.84;;;23.78;45.80
66486;BME280;53303;47.476;8.084;2023-06-10T08:04:24;95013.13;;;23.81;45.98
66486;BME280;53303;47.476;8.084;2023-06-10T08:06:49;95014.44;;;23.80;45.75
66486;BME280;53303;47.476;8.084;2023-06-10T08:09:15;95017.00;;;23.78;45.87
66486;BME280;53303;47.476;8.084;2023-06-10T08:11:40;95016.69;;;23.82;45.74
66486;BME280;53303;47.476;8.084;2023-06-10T08:14:08;95018.69;;;23.81;45.53
66486;BME280;53303;47.476;8.084;2023-06-10T08:16:35;95014.53;;;23.74;45.60
66486;BME280;53303;47.476;8.084;2023-06-10T08:19:01;95021.47;;;23.81;45.61
66486;BME280;53303;47.476;8.084;2023-06-10T08:21:26;95018.28;;;23.77;45.58
66486;BME280;53303;47.476;8.084;2023-06-10T08:23:54;95020.00;;;23.80;45.60
66486;BME280;53303;47.476;8.084;2023-06-10T08:26:20;95011.66;;;23.80;45.69
66486;BME280;53303;47.476;8.084;2023-06-10T08:28:45;95006.59;;;23.79;45.84
66486;BME280;53303;47.476;8.084;2023-06-10T08:31:14;95018.69;;;23.81;45.65
66486;BME280;53303;47.476;8.084;2023-06-10T08:33:42;95012.59;;;23.83;45.71
66486;BME280;53303;47.476;8.084;2023-06-10T08:36:10;95009.59;;;23.81;45.72
66486;BME280;53303;47.476;8.084;2023-06-10T08:38:36;95011.09;;;23.82;45.66
66486;BME280;53303;47.476;8.084;2023-06-10T08:41:04;95011.66;;;23.80;45.68
66486;BME280;53303;47.476;8.084;2023-06-10T08:43:37;95011.09;;;23.82;45.77
66486;BME280;53303;47.476;8.084;2023-06-10T08:46:08;95014.63;;;23.82;45.66
66486;BME280;53303;47.476;8.084;2023-06-10T08:48:35;95008.31;;;23.82;45.90
66486;BME280;53303;47.476;8.084;2023-06-10T08:51:09;95011.09;;;23.82;45.60
66486;BME280;53303;47.476;8.084;2023-06-10T08:53:38;95007.31;;;23.79;45.65
66486;BME280;53303;47.476;8.084;2023-06-10T08:56:09;95006.28;;;23.82;45.92
66486;BME280;53303;47.476;8.084;2023-06-10T08:58:35;95006.06;;;23.80;45.63
66486;BME280;53303;47.476;8.084;2023-06-10T09:01:07;95001.97;;;23.81;45.74
66486;BME280;53303;47.476;8.084;2023-06-10T09:03:36;94999.97;;;23.82;45.80
66486;BME280;53303;47.476;8.084;2023-06-10T09:06:05;95001.25;;;23.81;45.84
66486;BME280;53303;47.476;8.084;2023-06-10T09:08:33;95003.50;;;23.82;45.89
66486;BME280;53303;47.476;8.084;2023-06-10T09:11:00;95005.53;;;23.82;45.85
66486;BME280;53303;47.476;8.084;2023-06-10T09:13:26;94997.19;;;23.82;45.76
66486;BME280;53303;47.476;8.084;2023-06-10T09:15:51;94998.66;;;23.83;45.65
66486;BME280;53303;47.476;8.084;2023-06-10T09:18:19;94994.69;;;23.78;45.91
66486;BME280;53303;47.476;8.084;2023-06-10T09:20:45;95002.22;;;23.83;45.73
66486;BME280;53303;47.476;8.084;2023-06-10T09:23:10;94989.88;;;23.79;45.87
66486;BME280;53303;47.476;8.084;2023-06-10T09:25:37;94991.81;;;23.84;45.81
66486;BME280;53303;47.476;8.084;2023-06-10T09:28:03;94991.06;;;23.83;45.70
66486;BME280;53303;47.476;8.084;2023-06-10T09:30:33;94991.06;;;23.83;45.77
66486;BME280;53303;47.476;8.084;2023-06-10T09:33:09;94989.56;;;23.82;45.86
66486;BME280;53303;47.476;8.084;2023-06-10T09:35:47;94975.75;;;23.76;45.80
66486;BME280;53303;47.476;8.084;2023-06-10T09:38:20;94988.81;;;23.82;45.90
66486;BME280;53303;47.476;8.084;2023-06-10T09:40:50;94980.19;;;23.80;45.90
66486;BME280;53303;47.476;8.084;2023-06-10T09:43:16;94984.00;;;23.82;45.77
66486;BME280;53303;47.476;8.084;2023-06-10T09:45:41;94984.53;;;23.81;45.73
66486;BME280;53303;47.476;8.084;2023-06-10T09:48:08;94980.47;;;23.82;45.70
66486;BME280;53303;47.476;8.084;2023-06-10T09:50:45;94995.88;;;23.83;45.65
66486;BME280;53303;47.476;8.084;2023-06-10T09:53:11;94987.50;;;23.83;45.85
66486;BME280;53303;47.476;8.084;2023-06-10T09:55:38;94986.22;;;23.84;45.88
66486;BME280;53303;47.476;8.084;2023-06-10T09:58:04;94982.13;;;23.85;46.00
66486;BME280;53303;47.476;8.084;2023-06-10T10:00:32;94985.69;;;23.85;46.08
66486;BME280;53303;47.476;8.084;2023-06-10T10:03:00;94980.13;;;23.85;46.00
66486;BME280;53303;47.476;8.084;2023-06-10T10:05:28;94984.94;;;23.85;45.78
66486;BME280;53303;47.476;8.084;2023-06-10T10:07:55;94991.25;;;23.85;45.76
66486;BME280;53303;47.476;8.084;2023-06-10T10:10:22;94979.34;;;23.85;45.88
66486;BME280;53303;47.476;8.084;2023-06-10T10:12:48;94988.47;;;23.85;45.92
66486;BME280;53303;47.476;8.084;2023-06-10T10:15:17;94987.94;;;23.87;45.89
66486;BME280;53303;47.476;8.084;2023-06-10T10:17:49;94991.25;;;23.85;46.00
66486;BME280;53303;47.476;8.084;2023-06-10T10:20:20;94987.16;;;23.86;45.94
66486;BME280;53303;47.476;8.084;2023-06-10T10:22:51;94982.72;;;23.83;45.90
66486;BME280;53303;47.476;8.084;2023-06-10T10:25:34;94986.22;;;23.84;46.16
66486;BME280;53303;47.476;8.084;2023-06-10T10:28:09;94980.13;;;23.85;46.07
66486;BME280;53303;47.476;8.084;2023-06-10T10:30:59;94971.75;;;23.85;46.11
66486;BME280;53303;47.476;8.084;2023-06-10T10:33:42;94975.09;;;23.84;46.16
66486;BME280;53303;47.476;8.084;2023-06-10T10:36:10;94974.53;;;23.85;46.13
66486;BME280;53303;47.476;8.084;2023-06-10T10:38:37;94971.75;;;23.85;45.94
66486;BME280;53303;47.476;8.084;2023-06-10T10:41:04;94972.50;;;23.86;45.92
66486;BME280;53303;47.476;8.084;2023-06-10T10:43:30;94960.41;;;23.83;45.91
66486;BME280;53303;47.476;8.084;2023-06-10T10:45:59;94964.88;;;23.86;45.88
66486;BME280;53303;47.476;8.084;2023-06-10T10:48:26;94975.09;;;23.84;46.17
66486;BME280;53303;47.476;8.084;2023-06-10T10:50:58;94973.44;;;23.88;46.21
66486;BME280;53303;47.476;8.084;2023-06-10T10:53:24;94977.72;;;23.89;45.93
66486;BME280;53303;47.476;8.084;2023-06-10T10:56:09;94974.34;;;23.83;46.31
66486;BME280;53303;47.476;8.084;2023-06-10T10:58:37;94973.44;;;23.88;46.18
66486;BME280;53303;47.476;8.084;2023-06-10T11:01:14;94971.97;;;23.87;46.05
66486;BME280;53303;47.476;8.084;2023-06-10T11:03:46;94976.22;;;23.88;46.17
66486;BME280;53303;47.476;8.084;2023-06-10T11:06:16;94960.19;;;23.81;46.38
66486;BME280;53303;47.476;8.084;2023-06-10T11:11:25;94969.91;;;23.88;46.21
66486;BME280;53303;47.476;8.084;2023-06-10T11:16:27;94963.06;;;23.89;46.28
66486;BME280;53303;47.476;8.084;2023-06-10T11:18:56;94971.63;;;23.91;46.06
66486;BME280;53303;47.476;8.084;2023-06-10T11:21:25;94965.66;;;23.87;46.17
66486;BME280;53303;47.476;8.084;2023-06-10T11:23:53;94971.97;;;23.87;46.39
66486;BME280;53303;47.476;8.084;2023-06-10T11:31:25;94966.25;;;23.93;45.90
66486;BME280;53303;47.476;8.084;2023-06-10T11:34:01;94968.84;;;23.91;46.22
66486;BME280;53303;47.476;8.084;2023-06-10T11:36:31;94969.56;;;23.91;46.10
66486;BME280;53303;47.476;8.084;2023-06-10T11:38:59;94964.19;;;23.93;46.22
66486;BME280;53303;47.476;8.084;2023-06-10T11:41:25;94962.19;;;23.94;46.16
66486;BME280;53303;47.476;8.084;2023-06-10T11:43:52;94964.97;;;23.94;46.28
66486;BME280;53303;47.476;8.084;2023-06-10T11:46:18;94962.38;;;23.96;46.30
66486;BME280;53303;47.476;8.084;2023-06-10T11:48:51;94962.19;;;23.94;45.96
66486;BME280;53303;47.476;8.084;2023-06-10T11:51:17;94957.16;;;23.92;46.10
66486;BME280;53303;47.476;8.084;2023-06-10T11:53:47;94952.50;;;23.95;45.89
66486;BME280;53303;47.476;8.084;2023-06-10T11:56:12;94953.25;;;23.95;45.97
66486;BME280;53303;47.476;8.084;2023-06-10T11:58:43;94934.66;;;23.90;45.91
66486;BME280;53303;47.476;8.084;2023-06-10T12:01:10;94941.38;;;23.95;45.91
66486;BME280;53303;47.476;8.084;2023-06-10T12:03:38;94954.75;;;23.97;45.78
66486;BME280;53303;47.476;8.084;2023-06-10T12:06:05;94943.59;;;23.97;45.99
66486;BME280;53303;47.476;8.084;2023-06-10T12:08:32;94943.22;;;23.92;45.86
66486;BME280;53303;47.476;8.084;2023-06-10T12:10:58;94952.91;;;23.99;45.92
66486;BME280;53303;47.476;8.084;2023-06-10T12:13:27;94942.88;;;23.96;46.01
66486;BME280;53303;47.476;8.084;2023-06-10T12:15:53;94947.34;;;23.99;45.93
66486;BME280;53303;47.476;8.084;2023-06-10T12:18:20;94938.97;;;23.99;45.88
66486;BME280;53303;47.476;8.084;2023-06-10T12:20:46;94944.00;;;24.01;45.86
66486;BME280;53303;47.476;8.084;2023-06-10T12:23:16;94936.94;;;24.00;45.80
66486;BME280;53303;47.476;8.084;2023-06-10T12:25:52;94945.31;;;24.00;45.80
66486;BME280;53303;47.476;8.084;2023-06-10T12:28:24;94942.72;;;24.02;45.99
66486;BME280;53303;47.476;8.084;2023-06-10T12:30:50;94940.69;;;24.02;46.00
66486;BME280;53303;47.476;8.084;2023-06-10T12:33:17;94929.88;;;23.99;45.96
66486;BME280;53303;47.476;8.084;2023-06-10T12:35:52;94920.44;;;24.02;45.78
66486;BME280;53303;47.476;8.084;2023-06-10T12:38:25;94912.22;;;23.96;45.83
66486;BME280;53303;47.476;8.084;2023-06-10T12:40:53;94921.91;;;24.03;46.24
66486;BME280;53303;47.476;8.084;2023-06-10T12:43:23;94922.13;;;24.05;46.14
66486;BME280;53303;47.476;8.084;2023-06-10T12:45:49;94922.13;;;24.05;45.95
66486;BME280;53303;47.476;8.084;2023-06-10T12:50:46;94916.34;;;24.03;45.56
66486;BME280;53303;47.476;8.084;2023-06-10T12:53:12;94915.25;;;24.06;45.80
66486;BME280;53303;47.476;8.084;2023-06-10T12:55:38;94917.28;;;24.05;45.97
66486;BME280;53303;47.476;8.084;2023-06-10T12:58:03;94908.94;;;24.05;45.90
66486;BME280;53303;47.476;8.084;2023-06-10T13:00:31;94918.78;;;24.06;45.89
66486;BME280;53303;47.476;8.084;2023-06-10T13:02:59;94921.00;;;24.08;45.83
66486;BME280;53303;47.476;8.084;2023-06-10T13:05:26;94916.94;;;24.09;45.82
66486;BME280;53303;47.476;8.084;2023-06-10T13:07:52;94912.66;;;24.08;45.87
66486;BME280;53303;47.476;8.084;2023-06-10T13:10:17;94908.59;;;24.09;45.67
66486;BME280;53303;47.476;8.084;2023-06-10T13:12:44;94908.03;;;24.10;45.62
66486;BME280;53303;47.476;8.084;2023-06-10T13:15:10;94893.34;;;24.10;45.88